Sintra, Portugal

1:53 AM WEST on September 16, 2014 (GMT +0100)
Belas Clube de Campo | Change Station
CLOSE
Current Station
Personal Weather Station
Location: Belas, LISBON
Elevation: 791 ft
Nearby Weather Stations

Elev 791 ft 38.81 °N, 9.28 °W | Updated 16 seconds ago

Scattered Clouds
Scattered Clouds
69.4 °F
Feels Like 69.4 °F
N
9.2
Wind Variable Wind from South
Gusts 12.8 mph

Today
High -- | Low -- °F
--% Chance of Precip.
Yesterday
High -- | Low -- °F
Precip. -- in
7:19 AM 7:44 PM
Waning Gibbous, 51% visible
Pressure 29.71 in
Visibility 6.2 miles
Clouds Scattered Clouds 1600 ft
Dew Point 70 °F
Humidity 97%
Rainfall 0.00 in
Snow Depth Not available.
UV 0 out of 12
Pollen Not available.
Air Quality Not available.
Flu Activity Not available.
METAR LPPT 160030Z 18010KT 9999 SCT016 21/19 Q1006

More Conditions Fewer Conditions

Pressure 29.71 in
Visibility 6.2 miles
Clouds Scattered Clouds 1600 ft
Dew Point 70 °F
Humidity 97%
Rainfall 0.00 in
Snow Depth Not available.
UV 0 out of 12
Pollen Not available.
Air Quality Not available.
Flu Activity Not available.
METAR LPPT 160030Z 18010KT 9999 SCT016 21/19 Q1006

More Conditions Fewer Conditions

10-Day Weather Forecast

Almanac

Astronomy

Sep. 16, 2014 Rise Set
Actual Time 7:19 AM WEST 7:44 PM WEST
Civil Twilight 6:52 AM WEST 8:10 PM WEST
Nautical Twilight 6:21 AM WEST 8:42 PM WEST
Astronomical Twilight 5:49 AM WEST 9:14 PM WEST
Moon 12:20 AM WEST 2:54 PM WEST
Length of Visible Light 13h 18m
Length of Day
12h 24m
Tomorrow will be 2m 29s shorter.
Waning Gibbous, 51% of the Moon is Illuminated
Sep 15
Waning Gibbous
Sep 15
Last Quarter
Sep 24
New
Oct 1
First Quarter
Oct 8
Full

Yesterday's Extremes

Country Highs Country Lows

Community

WunderPhotos

Upload Photos

1,753,630 photos uploaded!

Nearby

Snow Depth

Not available.

Earthquake Activity

City Distance Mag. Time & Date
No recent earthquake activity has been reported nearby.
Minimum magnitude displayed is 2.5.

Coastal Water Temperatures

Place Temperature
No Stations Reporting

Nearby Weather Stations